Jackson Park, Illinois
Current Conditions -  °F | °C
As of 3:53 AM on Sunday 25 Jan 2015 (Local Time) from KMDW Reporting Station
Haze Haze  
Wind Chill: 29°   Ceiling: 700
Heat Index: 35°   Visibility: 6mi
Dew Point: 32°   Wind: 8mph
Humidity: 89%   Direction: 40°NE
Pressure: 29.68"   Gusts: NA
Location:  41.781°N, 87.6021°W
Report Text: KMDW 250953Z 04007KT 6SM BR BKN007 BKN024 OVC160 02/00 A2968 RMK AO2 SLP057 T00170000
Loading
Personal Weather Stations






























Interactive Weather Map New forecast layout! Learn more

10-Day Weather Forecast

Advertisements
Track Severe Weather on mobile